sensor_id;sensor_type;location;lat;lon;timestamp;temperature;humidity
44517;DHT22;30223;17.182;-96.766;2023-11-22T00:01:51;26.30;52.50
44517;DHT22;30223;17.182;-96.766;2023-11-22T00:04:17;26.30;52.70
44517;DHT22;30223;17.182;-96.766;2023-11-22T00:06:44;26.30;52.80
44517;DHT22;30223;17.182;-96.766;2023-11-22T00:09:10;26.30;52.90
44517;DHT22;30223;17.182;-96.766;2023-11-22T00:11:37;26.30;53.00
44517;DHT22;30223;17.182;-96.766;2023-11-22T00:14:04;26.30;53.10
44517;DHT22;30223;17.182;-96.766;2023-11-22T00:16:31;26.40;53.30
44517;DHT22;30223;17.182;-96.766;2023-11-22T00:18:58;26.30;53.20
44517;DHT22;30223;17.182;-96.766;2023-11-22T00:21:24;26.30;53.30
44517;DHT22;30223;17.182;-96.766;2023-11-22T00:23:51;26.30;53.40
44517;DHT22;30223;17.182;-96.766;2023-11-22T00:26:18;26.40;53.50
44517;DHT22;30223;17.182;-96.766;2023-11-22T00:28:44;26.30;53.50
44517;DHT22;30223;17.182;-96.766;2023-11-22T00:31:11;26.30;53.60
44517;DHT22;30223;17.182;-96.766;2023-11-22T00:33:40;26.40;53.70
44517;DHT22;30223;17.182;-96.766;2023-11-22T00:36:07;26.40;53.80
44517;DHT22;30223;17.182;-96.766;2023-11-22T00:38:34;26.30;53.80
44517;DHT22;30223;17.182;-96.766;2023-11-22T00:41:03;26.30;53.90
44517;DHT22;30223;17.182;-96.766;2023-11-22T00:43:29;26.30;54.00
44517;DHT22;30223;17.182;-96.766;2023-11-22T00:45:56;26.30;54.00
44517;DHT22;30223;17.182;-96.766;2023-11-22T00:48:23;26.30;54.10
44517;DHT22;30223;17.182;-96.766;2023-11-22T00:50:50;26.30;54.10
44517;DHT22;30223;17.182;-96.766;2023-11-22T00:53:17;26.30;54.10
44517;DHT22;30223;17.182;-96.766;2023-11-22T00:55:44;26.30;54.20
44517;DHT22;30223;17.182;-96.766;2023-11-22T00:58:11;26.30;53.30
44517;DHT22;30223;17.182;-96.766;2023-11-22T01:00:37;26.20;52.80
44517;DHT22;30223;17.182;-96.766;2023-11-22T01:03:04;26.20;52.70
44517;DHT22;30223;17.182;-96.766;2023-11-22T01:05:31;26.20;52.90
44517;DHT22;30223;17.182;-96.766;2023-11-22T01:07:57;26.20;52.80
44517;DHT22;30223;17.182;-96.766;2023-11-22T01:10:24;26.20;52.80
44517;DHT22;30223;17.182;-96.766;2023-11-22T01:12:51;26.10;52.50
44517;DHT22;30223;17.182;-96.766;2023-11-22T01:15:17;26.10;52.70
44517;DHT22;30223;17.182;-96.766;2023-11-22T01:17:44;26.10;52.60
44517;DHT22;30223;17.182;-96.766;2023-11-22T01:20:11;26.10;52.50
44517;DHT22;30223;17.182;-96.766;2023-11-22T01:22:40;26.10;52.60
44517;DHT22;30223;17.182;-96.766;2023-11-22T01:25:06;26.10;52.30
44517;DHT22;30223;17.182;-96.766;2023-11-22T01:27:33;26.00;52.40
44517;DHT22;30223;17.182;-96.766;2023-11-22T01:30:00;26.00;52.20
44517;DHT22;30223;17.182;-96.766;2023-11-22T01:32:27;26.00;52.10
44517;DHT22;30223;17.182;-96.766;2023-11-22T01:34:55;26.00;52.10
44517;DHT22;30223;17.182;-96.766;2023-11-22T01:37:24;26.00;51.70
44517;DHT22;30223;17.182;-96.766;2023-11-22T01:39:50;26.00;52.10
44517;DHT22;30223;17.182;-96.766;2023-11-22T01:42:18;26.00;51.70
44517;DHT22;30223;17.182;-96.766;2023-11-22T01:44:46;25.90;51.30
44517;DHT22;30223;17.182;-96.766;2023-11-22T01:47:14;25.90;51.20
44517;DHT22;30223;17.182;-96.766;2023-11-22T01:49:41;25.90;50.70
44517;DHT22;30223;17.182;-96.766;2023-11-22T01:52:07;25.90;51.20
44517;DHT22;30223;17.182;-96.766;2023-11-22T01:54:35;25.80;50.90
44517;DHT22;30223;17.182;-96.766;2023-11-22T01:57:02;25.80;50.90
44517;DHT22;30223;17.182;-96.766;2023-11-22T01:59:29;25.80;50.60
44517;DHT22;30223;17.182;-96.766;2023-11-22T02:01:57;25.80;50.70
44517;DHT22;30223;17.182;-96.766;2023-11-22T02:04:24;25.80;50.30
44517;DHT22;30223;17.182;-96.766;2023-11-22T02:06:51;25.80;50.00
44517;DHT22;30223;17.182;-96.766;2023-11-22T02:09:18;25.80;50.00
44517;DHT22;30223;17.182;-96.766;2023-11-22T02:11:45;25.70;49.60
44517;DHT22;30223;17.182;-96.766;2023-11-22T02:14:13;25.70;50.00
44517;DHT22;30223;17.182;-96.766;2023-11-22T02:16:40;25.70;50.20
44517;DHT22;30223;17.182;-96.766;2023-11-22T02:19:08;25.60;50.20
44517;DHT22;30223;17.182;-96.766;2023-11-22T02:21:40;25.70;49.60
44517;DHT22;30223;17.182;-96.766;2023-11-22T02:24:06;25.70;49.60
44517;DHT22;30223;17.182;-96.766;2023-11-22T02:26:33;25.60;49.50
44517;DHT22;30223;17.182;-96.766;2023-11-22T02:29:00;25.60;49.60
44517;DHT22;30223;17.182;-96.766;2023-11-22T02:31:26;25.60;49.40
44517;DHT22;30223;17.182;-96.766;2023-11-22T02:33:53;25.60;49.10
44517;DHT22;30223;17.182;-96.766;2023-11-22T02:36:23;25.60;49.40
44517;DHT22;30223;17.182;-96.766;2023-11-22T02:38:50;25.50;49.20
44517;DHT22;30223;17.182;-96.766;2023-11-22T02:41:17;25.50;48.90
44517;DHT22;30223;17.182;-96.766;2023-11-22T02:43:44;25.50;49.10
44517;DHT22;30223;17.182;-96.766;2023-11-22T02:46:12;25.50;49.40
44517;DHT22;30223;17.182;-96.766;2023-11-22T02:48:38;25.50;49.50
44517;DHT22;30223;17.182;-96.766;2023-11-22T02:51:05;25.50;49.60
44517;DHT22;30223;17.182;-96.766;2023-11-22T02:53:32;25.50;50.00
44517;DHT22;30223;17.182;-96.766;2023-11-22T02:56:00;25.50;50.10
44517;DHT22;30223;17.182;-96.766;2023-11-22T02:58:28;25.50;50.40
44517;DHT22;30223;17.182;-96.766;2023-11-22T03:00:55;25.50;50.70
44517;DHT22;30223;17.182;-96.766;2023-11-22T03:03:23;25.50;50.90
44517;DHT22;30223;17.182;-96.766;2023-11-22T03:05:50;25.50;51.10
44517;DHT22;30223;17.182;-96.766;2023-11-22T03:08:17;25.50;50.10
44517;DHT22;30223;17.182;-96.766;2023-11-22T03:10:43;25.50;49.90
44517;DHT22;30223;17.182;-96.766;2023-11-22T03:13:10;25.50;50.40
44517;DHT22;30223;17.182;-96.766;2023-11-22T03:15:36;25.50;50.40
44517;DHT22;30223;17.182;-96.766;2023-11-22T03:18:03;25.50;50.50
44517;DHT22;30223;17.182;-96.766;2023-11-22T03:20:32;25.50;50.60
44517;DHT22;30223;17.182;-96.766;2023-11-22T03:22:59;25.50;50.70
44517;DHT22;30223;17.182;-96.766;2023-11-22T03:25:26;25.50;50.40
44517;DHT22;30223;17.182;-96.766;2023-11-22T03:27:53;25.50;50.30
44517;DHT22;30223;17.182;-96.766;2023-11-22T03:30:20;25.50;50.20
44517;DHT22;30223;17.182;-96.766;2023-11-22T03:32:46;25.40;49.80
44517;DHT22;30223;17.182;-96.766;2023-11-22T03:35:13;25.40;49.70
44517;DHT22;30223;17.182;-96.766;2023-11-22T03:37:40;25.40;49.40
44517;DHT22;30223;17.182;-96.766;2023-11-22T03:40:07;25.40;48.80
44517;DHT22;30223;17.182;-96.766;2023-11-22T03:42:38;25.40;48.60
44517;DHT22;30223;17.182;-96.766;2023-11-22T03:45:06;25.30;47.90
44517;DHT22;30223;17.182;-96.766;2023-11-22T03:47:32;25.30;47.80
44517;DHT22;30223;17.182;-96.766;2023-11-22T03:49:59;25.30;47.50
44517;DHT22;30223;17.182;-96.766;2023-11-22T03:52:26;25.30;47.80
44517;DHT22;30223;17.182;-96.766;2023-11-22T03:54:55;25.20;47.50
44517;DHT22;30223;17.182;-96.766;2023-11-22T03:57:23;25.30;47.70
44517;DHT22;30223;17.182;-96.766;2023-11-22T03:59:50;25.20;47.40
44517;DHT22;30223;17.182;-96.766;2023-11-22T04:02:16;25.20;47.10
44517;DHT22;30223;17.182;-96.766;2023-11-22T04:04:43;25.20;47.40
44517;DHT22;30223;17.182;-96.766;2023-11-22T04:07:10;25.20;47.00
44517;DHT22;30223;17.182;-96.766;2023-11-22T04:09:37;25.10;47.10
44517;DHT22;30223;17.182;-96.766;2023-11-22T04:12:04;25.10;47.20
44517;DHT22;30223;17.182;-96.766;2023-11-22T04:14:30;25.10;47.60
44517;DHT22;30223;17.182;-96.766;2023-11-22T04:16:57;25.20;47.80
44517;DHT22;30223;17.182;-96.766;2023-11-22T04:19:23;25.10;47.80
44517;DHT22;30223;17.182;-96.766;2023-11-22T04:21:50;25.10;47.60
44517;DHT22;30223;17.182;-96.766;2023-11-22T04:24:17;25.10;47.50
44517;DHT22;30223;17.182;-96.766;2023-11-22T04:26:45;25.10;47.80
44517;DHT22;30223;17.182;-96.766;2023-11-22T04:29:11;25.10;48.00
44517;DHT22;30223;17.182;-96.766;2023-11-22T04:31:38;25.10;48.00
44517;DHT22;30223;17.182;-96.766;2023-11-22T04:34:04;25.10;48.00
44517;DHT22;30223;17.182;-96.766;2023-11-22T04:36:31;25.00;47.80
44517;DHT22;30223;17.182;-96.766;2023-11-22T04:38:58;25.00;47.80
44517;DHT22;30223;17.182;-96.766;2023-11-22T04:41:24;25.00;47.60
44517;DHT22;30223;17.182;-96.766;2023-11-22T04:43:52;25.00;47.60
44517;DHT22;30223;17.182;-96.766;2023-11-22T04:46:19;25.00;47.40
44517;DHT22;30223;17.182;-96.766;2023-11-22T04:48:46;25.00;47.10
44517;DHT22;30223;17.182;-96.766;2023-11-22T04:51:17;25.00;47.20
44517;DHT22;30223;17.182;-96.766;2023-11-22T04:53:44;25.00;47.30
44517;DHT22;30223;17.182;-96.766;2023-11-22T04:56:11;24.90;47.40
44517;DHT22;30223;17.182;-96.766;2023-11-22T04:58:37;24.90;46.80
44517;DHT22;30223;17.182;-96.766;2023-11-22T05:01:04;24.90;46.50
44517;DHT22;30223;17.182;-96.766;2023-11-22T05:03:30;24.80;46.20
44517;DHT22;30223;17.182;-96.766;2023-11-22T05:05:57;24.80;46.80
44517;DHT22;30223;17.182;-96.766;2023-11-22T05:08:23;24.80;47.30
44517;DHT22;30223;17.182;-96.766;2023-11-22T05:10:51;24.80;47.50
44517;DHT22;30223;17.182;-96.766;2023-11-22T05:13:17;24.70;47.60
44517;DHT22;30223;17.182;-96.766;2023-11-22T05:15:44;24.70;47.90
44517;DHT22;30223;17.182;-96.766;2023-11-22T05:18:10;24.70;48.10
44517;DHT22;30223;17.182;-96.766;2023-11-22T05:20:41;24.70;48.30
44517;DHT22;30223;17.182;-96.766;2023-11-22T05:23:07;24.70;48.40
44517;DHT22;30223;17.182;-96.766;2023-11-22T05:25:34;24.70;48.50
44517;DHT22;30223;17.182;-96.766;2023-11-22T05:28:00;24.70;48.70
44517;DHT22;30223;17.182;-96.766;2023-11-22T05:30:27;24.70;48.80
44517;DHT22;30223;17.182;-96.766;2023-11-22T05:32:54;24.70;48.90
44517;DHT22;30223;17.182;-96.766;2023-11-22T05:35:20;24.80;49.10
44517;DHT22;30223;17.182;-96.766;2023-11-22T05:37:48;24.80;49.10
44517;DHT22;30223;17.182;-96.766;2023-11-22T05:40:14;24.80;49.10
44517;DHT22;30223;17.182;-96.766;2023-11-22T05:42:42;24.80;49.20
44517;DHT22;30223;17.182;-96.766;2023-11-22T05:45:09;24.80;49.30
44517;DHT22;30223;17.182;-96.766;2023-11-22T05:47:36;24.80;49.40
44517;DHT22;30223;17.182;-96.766;2023-11-22T05:50:04;24.80;49.40
44517;DHT22;30223;17.182;-96.766;2023-11-22T05:52:32;24.80;49.50
44517;DHT22;30223;17.182;-96.766;2023-11-22T05:54:59;24.70;49.50
44517;DHT22;30223;17.182;-96.766;2023-11-22T05:57:29;24.80;49.70
44517;DHT22;30223;17.182;-96.766;2023-11-22T05:59:56;24.80;49.70
44517;DHT22;30223;17.182;-96.766;2023-11-22T06:02:23;24.80;49.70
44517;DHT22;30223;17.182;-96.766;2023-11-22T06:04:50;24.80;49.80
44517;DHT22;30223;17.182;-96.766;2023-11-22T06:07:16;24.80;49.80
44517;DHT22;30223;17.182;-96.766;2023-11-22T06:09:43;24.80;49.90
44517;DHT22;30223;17.182;-96.766;2023-11-22T06:12:09;24.70;50.00
44517;DHT22;30223;17.182;-96.766;2023-11-22T06:14:36;24.80;50.10
44517;DHT22;30223;17.182;-96.766;2023-11-22T06:17:02;24.80;50.10
44517;DHT22;30223;17.182;-96.766;2023-11-22T06:19:29;24.70;50.10
44517;DHT22;30223;17.182;-96.766;2023-11-22T06:21:56;24.70;50.20
44517;DHT22;30223;17.182;-96.766;2023-11-22T06:24:22;24.70;50.30
44517;DHT22;30223;17.182;-96.766;2023-11-22T06:26:49;24.70;50.30
44517;DHT22;30223;17.182;-96.766;2023-11-22T06:29:16;24.70;50.40
44517;DHT22;30223;17.182;-96.766;2023-11-22T06:31:42;24.70;50.40
44517;DHT22;30223;17.182;-96.766;2023-11-22T06:34:09;24.70;50.50
44517;DHT22;30223;17.182;-96.766;2023-11-22T06:36:35;24.70;50.50
44517;DHT22;30223;17.182;-96.766;2023-11-22T06:39:02;24.70;50.60
44517;DHT22;30223;17.182;-96.766;2023-11-22T06:41:30;24.70;50.60
44517;DHT22;30223;17.182;-96.766;2023-11-22T06:43:56;24.60;50.60
44517;DHT22;30223;17.182;-96.766;2023-11-22T06:46:23;24.70;50.70
44517;DHT22;30223;17.182;-96.766;2023-11-22T06:48:50;24.60;50.70
44517;DHT22;30223;17.182;-96.766;2023-11-22T06:51:17;24.60;50.80
44517;DHT22;30223;17.182;-96.766;2023-11-22T06:53:45;24.60;50.80
44517;DHT22;30223;17.182;-96.766;2023-11-22T06:56:12;24.60;50.80
44517;DHT22;30223;17.182;-96.766;2023-11-22T06:58:38;24.60;50.80
44517;DHT22;30223;17.182;-96.766;2023-11-22T07:01:05;24.60;50.90
44517;DHT22;30223;17.182;-96.766;2023-11-22T07:03:33;24.60;51.00
44517;DHT22;30223;17.182;-96.766;2023-11-22T07:06:00;24.60;51.00
44517;DHT22;30223;17.182;-96.766;2023-11-22T07:08:26;24.60;51.00
44517;DHT22;30223;17.182;-96.766;2023-11-22T07:10:54;24.60;51.10
44517;DHT22;30223;17.182;-96.766;2023-11-22T07:13:23;24.60;51.20
44517;DHT22;30223;17.182;-96.766;2023-11-22T07:15:50;24.60;51.20
44517;DHT22;30223;17.182;-96.766;2023-11-22T07:18:17;24.60;51.30
44517;DHT22;30223;17.182;-96.766;2023-11-22T07:20:44;24.50;51.30
44517;DHT22;30223;17.182;-96.766;2023-11-22T07:23:10;24.50;51.30
44517;DHT22;30223;17.182;-96.766;2023-11-22T07:25:40;24.50;51.40
44517;DHT22;30223;17.182;-96.766;2023-11-22T07:28:07;24.50;51.40
44517;DHT22;30223;17.182;-96.766;2023-11-22T07:30:34;24.50;51.50
44517;DHT22;30223;17.182;-96.766;2023-11-22T07:33:04;24.50;51.50
44517;DHT22;30223;17.182;-96.766;2023-11-22T07:35:32;24.50;51.50
44517;DHT22;30223;17.182;-96.766;2023-11-22T07:37:58;24.50;51.70
44517;DHT22;30223;17.182;-96.766;2023-11-22T07:40:25;24.50;51.70
44517;DHT22;30223;17.182;-96.766;2023-11-22T07:42:51;24.50;51.70
44517;DHT22;30223;17.182;-96.766;2023-11-22T07:45:18;24.50;51.80
44517;DHT22;30223;17.182;-96.766;2023-11-22T07:47:45;24.50;51.80
44517;DHT22;30223;17.182;-96.766;2023-11-22T07:50:13;24.50;51.90
44517;DHT22;30223;17.182;-96.766;2023-11-22T07:52:39;24.50;52.00
44517;DHT22;30223;17.182;-96.766;2023-11-22T07:55:08;24.50;52.60
44517;DHT22;30223;17.182;-96.766;2023-11-22T07:57:36;24.50;52.10
44517;DHT22;30223;17.182;-96.766;2023-11-22T08:00:03;24.40;52.00
44517;DHT22;30223;17.182;-96.766;2023-11-22T08:02:34;24.40;52.00
44517;DHT22;30223;17.182;-96.766;2023-11-22T08:05:00;24.40;52.00
44517;DHT22;30223;17.182;-96.766;2023-11-22T08:07:29;24.40;52.10
44517;DHT22;30223;17.182;-96.766;2023-11-22T08:09:56;24.40;52.10
44517;DHT22;30223;17.182;-96.766;2023-11-22T08:12:22;24.40;52.10
44517;DHT22;30223;17.182;-96.766;2023-11-22T08:14:49;24.40;52.20
44517;DHT22;30223;17.182;-96.766;2023-11-22T08:17:16;24.40;52.10
44517;DHT22;30223;17.182;-96.766;2023-11-22T08:19:43;24.30;52.10
44517;DHT22;30223;17.182;-96.766;2023-11-22T08:22:09;24.30;52.10
44517;DHT22;30223;17.182;-96.766;2023-11-22T08:24:36;24.30;52.20
44517;DHT22;30223;17.182;-96.766;2023-11-22T08:27:02;24.30;52.10
44517;DHT22;30223;17.182;-96.766;2023-11-22T08:29:29;24.30;52.10
44517;DHT22;30223;17.182;-96.766;2023-11-22T08:31:56;24.30;52.20
44517;DHT22;30223;17.182;-96.766;2023-11-22T08:34:24;24.30;52.30
44517;DHT22;30223;17.182;-96.766;2023-11-22T08:36:50;24.30;52.30
44517;DHT22;30223;17.182;-96.766;2023-11-22T08:39:20;24.30;52.30
44517;DHT22;30223;17.182;-96.766;2023-11-22T08:41:49;24.30;52.30
44517;DHT22;30223;17.182;-96.766;2023-11-22T08:44:17;24.20;52.20
44517;DHT22;30223;17.182;-96.766;2023-11-22T08:46:45;24.20;52.20
44517;DHT22;30223;17.182;-96.766;2023-11-22T08:49:13;24.20;52.30
44517;DHT22;30223;17.182;-96.766;2023-11-22T08:51:41;24.20;52.20
44517;DHT22;30223;17.182;-96.766;2023-11-22T08:54:08;24.20;52.20
44517;DHT22;30223;17.182;-96.766;2023-11-22T08:56:35;24.20;52.20
44517;DHT22;30223;17.182;-96.766;2023-11-22T08:59:02;24.20;52.20
44517;DHT22;30223;17.182;-96.766;2023-11-22T09:01:30;24.20;52.20
44517;DHT22;30223;17.182;-96.766;2023-11-22T09:03:56;24.10;52.00
44517;DHT22;30223;17.182;-96.766;2023-11-22T09:06:23;24.20;52.10
44517;DHT22;30223;17.182;-96.766;2023-11-22T09:08:50;24.10;52.00
44517;DHT22;30223;17.182;-96.766;2023-11-22T09:11:17;24.10;52.00
44517;DHT22;30223;17.182;-96.766;2023-11-22T09:13:46;24.10;52.00
44517;DHT22;30223;17.182;-96.766;2023-11-22T09:16:12;24.10;52.00
44517;DHT22;30223;17.182;-96.766;2023-11-22T09:18:39;24.10;52.00
44517;DHT22;30223;17.182;-96.766;2023-11-22T09:21:05;24.00;51.90
44517;DHT22;30223;17.182;-96.766;2023-11-22T09:23:35;24.00;51.90
44517;DHT22;30223;17.182;-96.766;2023-11-22T09:26:05;24.10;52.00
44517;DHT22;30223;17.182;-96.766;2023-11-22T09:28:32;24.10;52.00
44517;DHT22;30223;17.182;-96.766;2023-11-22T09:31:00;24.00;51.90
44517;DHT22;30223;17.182;-96.766;2023-11-22T09:33:32;24.00;51.90
44517;DHT22;30223;17.182;-96.766;2023-11-22T09:35:59;24.00;51.90
44517;DHT22;30223;17.182;-96.766;2023-11-22T09:38:26;24.00;51.90
44517;DHT22;30223;17.182;-96.766;2023-11-22T09:40:53;24.00;51.90
44517;DHT22;30223;17.182;-96.766;2023-11-22T09:43:21;23.90;51.80
44517;DHT22;30223;17.182;-96.766;2023-11-22T09:45:49;23.90;51.80
44517;DHT22;30223;17.182;-96.766;2023-11-22T09:48:18;23.90;51.90
44517;DHT22;30223;17.182;-96.766;2023-11-22T09:51:04;23.90;51.90
44517;DHT22;30223;17.182;-96.766;2023-11-22T09:53:55;23.90;51.90
44517;DHT22;30223;17.182;-96.766;2023-11-22T09:56:27;23.90;51.80
44517;DHT22;30223;17.182;-96.766;2023-11-22T09:58:59;23.90;51.80
44517;DHT22;30223;17.182;-96.766;2023-11-22T10:01:30;23.80;51.70
44517;DHT22;30223;17.182;-96.766;2023-11-22T10:04:03;23.80;51.70
44517;DHT22;30223;17.182;-96.766;2023-11-22T10:06:32;23.80;51.70
44517;DHT22;30223;17.182;-96.766;2023-11-22T10:09:02;23.80;51.70
44517;DHT22;30223;17.182;-96.766;2023-11-22T10:11:36;23.80;51.80
44517;DHT22;30223;17.182;-96.766;2023-11-22T10:14:09;23.80;51.70
44517;DHT22;30223;17.182;-96.766;2023-11-22T10:16:36;23.80;51.70
44517;DHT22;30223;17.182;-96.766;2023-11-22T10:19:06;23.70;51.70
44517;DHT22;30223;17.182;-96.766;2023-11-22T10:21:32;23.70;51.70
44517;DHT22;30223;17.182;-96.766;2023-11-22T10:24:03;23.70;51.70
44517;DHT22;30223;17.182;-96.766;2023-11-22T10:26:30;23.70;51.70
44517;DHT22;30223;17.182;-96.766;2023-11-22T10:28:57;23.60;51.60
44517;DHT22;30223;17.182;-96.766;2023-11-22T10:31:24;23.60;51.70
44517;DHT22;30223;17.182;-96.766;2023-11-22T10:33:51;23.60;51.70
44517;DHT22;30223;17.182;-96.766;2023-11-22T10:36:19;23.60;51.70
44517;DHT22;30223;17.182;-96.766;2023-11-22T10:38:47;23.60;51.70
44517;DHT22;30223;17.182;-96.766;2023-11-22T10:41:14;23.60;51.70
44517;DHT22;30223;17.182;-96.766;2023-11-22T10:43:41;23.60;52.30
44517;DHT22;30223;17.182;-96.766;2023-11-22T10:46:12;23.60;51.70
44517;DHT22;30223;17.182;-96.766;2023-11-22T10:48:39;23.60;51.70
44517;DHT22;30223;17.182;-96.766;2023-11-22T10:51:06;23.60;51.70
44517;DHT22;30223;17.182;-96.766;2023-11-22T10:53:36;23.50;51.70
44517;DHT22;30223;17.182;-96.766;2023-11-22T10:56:17;23.50;51.60
44517;DHT22;30223;17.182;-96.766;2023-11-22T10:58:49;23.50;51.60
44517;DHT22;30223;17.182;-96.766;2023-11-22T11:01:17;23.50;51.60
44517;DHT22;30223;17.182;-96.766;2023-11-22T11:04:02;23.50;51.60
44517;DHT22;30223;17.182;-96.766;2023-11-22T11:06:35;23.50;51.60
44517;DHT22;30223;17.182;-96.766;2023-11-22T11:09:04;23.40;51.60
44517;DHT22;30223;17.182;-96.766;2023-11-22T11:11:39;23.50;51.70
44517;DHT22;30223;17.182;-96.766;2023-11-22T11:14:08;23.40;51.60
44517;DHT22;30223;17.182;-96.766;2023-11-22T11:16:40;23.40;51.60
44517;DHT22;30223;17.182;-96.766;2023-11-22T11:19:08;23.40;51.60
44517;DHT22;30223;17.182;-96.766;2023-11-22T11:21:36;23.40;51.60
44517;DHT22;30223;17.182;-96.766;2023-11-22T11:24:03;23.40;51.60
44517;DHT22;30223;17.182;-96.766;2023-11-22T11:26:34;23.40;51.60
44517;DHT22;30223;17.182;-96.766;2023-11-22T11:29:14;23.30;51.50
44517;DHT22;30223;17.182;-96.766;2023-11-22T11:31:56;23.30;51.50
44517;DHT22;30223;17.182;-96.766;2023-11-22T11:34:24;23.30;51.50
44517;DHT22;30223;17.182;-96.766;2023-11-22T11:36:57;23.30;51.50
44517;DHT22;30223;17.182;-96.766;2023-11-22T11:39:28;23.30;51.60
44517;DHT22;30223;17.182;-96.766;2023-11-22T11:42:08;23.20;51.50
44517;DHT22;30223;17.182;-96.766;2023-11-22T11:44:36;23.20;51.50
44517;DHT22;30223;17.182;-96.766;2023-11-22T11:47:10;23.20;51.50
44517;DHT22;30223;17.182;-96.766;2023-11-22T11:49:38;23.20;51.50
44517;DHT22;30223;17.182;-96.766;2023-11-22T11:52:05;23.20;51.50
44517;DHT22;30223;17.182;-96.766;2023-11-22T11:54:35;23.20;51.50
44517;DHT22;30223;17.182;-96.766;2023-11-22T11:57:04;23.10;51.40
44517;DHT22;30223;17.182;-96.766;2023-11-22T11:59:33;23.20;51.50
44517;DHT22;30223;17.182;-96.766;2023-11-22T12:02:01;23.10;51.40
44517;DHT22;30223;17.182;-96.766;2023-11-22T12:04:31;23.10;51.40
44517;DHT22;30223;17.182;-96.766;2023-11-22T12:07:01;23.10;51.50
44517;DHT22;30223;17.182;-96.766;2023-11-22T12:09:28;23.10;51.50
44517;DHT22;30223;17.182;-96.766;2023-11-22T12:11:56;23.10;51.50
44517;DHT22;30223;17.182;-96.766;2023-11-22T12:14:26;23.00;51.40
44517;DHT22;30223;17.182;-96.766;2023-11-22T12:16:53;23.00;51.50
44517;DHT22;30223;17.182;-96.766;2023-11-22T12:19:22;23.00;51.50
44517;DHT22;30223;17.182;-96.766;2023-11-22T12:21:49;23.00;51.50
44517;DHT22;30223;17.182;-96.766;2023-11-22T12:24:17;23.00;51.50
44517;DHT22;30223;17.182;-96.766;2023-11-22T12:38:48;22.90;51.00
44517;DHT22;30223;17.182;-96.766;2023-11-22T12:41:15;22.90;51.30
44517;DHT22;30223;17.182;-96.766;2023-11-22T12:43:44;22.90;51.30
44517;DHT22;30223;17.182;-96.766;2023-11-22T12:46:11;22.90;51.30
44517;DHT22;30223;17.182;-96.766;2023-11-22T12:48:45;22.80;51.30
44517;DHT22;30223;17.182;-96.766;2023-11-22T12:51:22;22.80;51.40
44517;DHT22;30223;17.182;-96.766;2023-11-22T12:53:52;22.80;51.30
44517;DHT22;30223;17.182;-96.766;2023-11-22T12:56:19;22.80;51.40
44517;DHT22;30223;17.182;-96.766;2023-11-22T12:58:46;22.80;51.40
44517;DHT22;30223;17.182;-96.766;2023-11-22T13:01:14;22.70;51.30
44517;DHT22;30223;17.182;-96.766;2023-11-22T13:03:41;22.80;51.40
44517;DHT22;30223;17.182;-96.766;2023-11-22T13:06:17;22.70;51.40
44517;DHT22;30223;17.182;-96.766;2023-11-22T13:08:44;22.60;51.30
44517;DHT22;30223;17.182;-96.766;2023-11-22T13:11:18;22.70;51.40
44517;DHT22;30223;17.182;-96.766;2023-11-22T13:13:46;22.60;51.40
44517;DHT22;30223;17.182;-96.766;2023-11-22T13:16:13;22.60;51.40
44517;DHT22;30223;17.182;-96.766;2023-11-22T13:18:42;22.60;51.40
44517;DHT22;30223;17.182;-96.766;2023-11-22T13:21:09;22.60;51.40
44517;DHT22;30223;17.182;-96.766;2023-11-22T13:23:39;22.50;51.40
44517;DHT22;30223;17.182;-96.766;2023-11-22T13:26:06;22.60;51.50
44517;DHT22;30223;17.182;-96.766;2023-11-22T13:28:39;22.50;51.40
44517;DHT22;30223;17.182;-96.766;2023-11-22T13:31:08;22.50;51.50
44517;DHT22;30223;17.182;-96.766;2023-11-22T13:33:36;22.50;51.50
44517;DHT22;30223;17.182;-96.766;2023-11-22T13:36:10;22.50;51.60
44517;DHT22;30223;17.182;-96.766;2023-11-22T13:38:40;22.40;51.60
44517;DHT22;30223;17.182;-96.766;2023-11-22T13:41:10;22.40;51.70
44517;DHT22;30223;17.182;-96.766;2023-11-22T13:43:38;22.40;51.70
44517;DHT22;30223;17.182;-96.766;2023-11-22T13:46:08;22.40;51.80
44517;DHT22;30223;17.182;-96.766;2023-11-22T13:48:36;22.40;51.80
44517;DHT22;30223;17.182;-96.766;2023-11-22T13:51:07;22.40;51.90
44517;DHT22;30223;17.182;-96.766;2023-11-22T13:53:37;22.40;51.90
44517;DHT22;30223;17.182;-96.766;2023-11-22T13:56:09;22.30;51.60
44517;DHT22;30223;17.182;-96.766;2023-11-22T13:58:39;22.30;52.20
44517;DHT22;30223;17.182;-96.766;2023-11-22T14:01:06;22.30;52.30
44517;DHT22;30223;17.182;-96.766;2023-11-22T14:03:41;22.30;52.30
44517;DHT22;30223;17.182;-96.766;2023-11-22T14:06:12;22.30;52.40
44517;DHT22;30223;17.182;-96.766;2023-11-22T14:08:40;22.30;52.40
44517;DHT22;30223;17.182;-96.766;2023-11-22T14:11:07;22.30;52.40
44517;DHT22;30223;17.182;-96.766;2023-11-22T14:13:35;22.30;53.10
44517;DHT22;30223;17.182;-96.766;2023-11-22T14:16:02;22.30;52.50
44517;DHT22;30223;17.182;-96.766;2023-11-22T14:18:33;22.30;52.60
44517;DHT22;30223;17.182;-96.766;2023-11-22T14:21:00;22.30;52.70
44517;DHT22;30223;17.182;-96.766;2023-11-22T14:23:29;22.30;52.80
44517;DHT22;30223;17.182;-96.766;2023-11-22T14:25:59;22.30;52.90
44517;DHT22;30223;17.182;-96.766;2023-11-22T14:28:26;22.30;53.00
44517;DHT22;30223;17.182;-96.766;2023-11-22T14:30:53;22.30;53.10
44517;DHT22;30223;17.182;-96.766;2023-11-22T14:33:21;22.30;53.20
44517;DHT22;30223;17.182;-96.766;2023-11-22T14:35:48;22.20;53.20
44517;DHT22;30223;17.182;-96.766;2023-11-22T14:38:15;22.30;53.30
44517;DHT22;30223;17.182;-96.766;2023-11-22T14:40:43;22.20;53.30
44517;DHT22;30223;17.182;-96.766;2023-11-22T14:43:10;22.30;53.40
44517;DHT22;30223;17.182;-96.766;2023-11-22T14:45:38;22.30;53.50
44517;DHT22;30223;17.182;-96.766;2023-11-22T14:48:05;22.20;53.50
44517;DHT22;30223;17.182;-96.766;2023-11-22T14:50:32;22.20;53.60
44517;DHT22;30223;17.182;-96.766;2023-11-22T14:52:59;22.30;53.70
44517;DHT22;30223;17.182;-96.766;2023-11-22T14:55:26;22.20;53.70
44517;DHT22;30223;17.182;-96.766;2023-11-22T14:57:52;22.30;53.90
44517;DHT22;30223;17.182;-96.766;2023-11-22T15:00:23;22.30;53.90
44517;DHT22;30223;17.182;-96.766;2023-11-22T15:02:51;22.30;54.00
44517;DHT22;30223;17.182;-96.766;2023-11-22T15:05:22;22.30;54.00
44517;DHT22;30223;17.182;-96.766;2023-11-22T15:07:49;22.30;54.00
44517;DHT22;30223;17.182;-96.766;2023-11-22T15:10:21;22.30;54.10
44517;DHT22;30223;17.182;-96.766;2023-11-22T15:12:48;22.30;54.10
44517;DHT22;30223;17.182;-96.766;2023-11-22T15:15:14;22.30;54.20
44517;DHT22;30223;17.182;-96.766;2023-11-22T15:17:41;22.30;54.10
44517;DHT22;30223;17.182;-96.766;2023-11-22T15:20:08;22.30;54.20